sensor_id;sensor_type;location;lat;lon;timestamp;temperature;humidity
20102;DHT22;10210;52.284;9.892;2024-03-06T00:01:34;7.80;99.90
20102;DHT22;10210;52.284;9.892;2024-03-06T00:04:02;7.80;99.90
20102;DHT22;10210;52.284;9.892;2024-03-06T00:06:29;7.80;99.90
20102;DHT22;10210;52.284;9.892;2024-03-06T00:08:56;7.70;99.90
20102;DHT22;10210;52.284;9.892;2024-03-06T00:11:21;7.70;99.90
20102;DHT22;10210;52.284;9.892;2024-03-06T00:13:47;7.80;99.90
20102;DHT22;10210;52.284;9.892;2024-03-06T00:16:13;7.70;99.90
20102;DHT22;10210;52.284;9.892;2024-03-06T00:18:39;7.70;99.90
20102;DHT22;10210;52.284;9.892;2024-03-06T00:21:05;7.70;99.90
20102;DHT22;10210;52.284;9.892;2024-03-06T00:23:32;7.70;99.90
20102;DHT22;10210;52.284;9.892;2024-03-06T00:25:58;7.60;99.90
20102;DHT22;10210;52.284;9.892;2024-03-06T00:28:23;7.60;99.90
20102;DHT22;10210;52.284;9.892;2024-03-06T00:30:50;7.60;99.90
20102;DHT22;10210;52.284;9.892;2024-03-06T00:33:15;7.60;99.90
20102;DHT22;10210;52.284;9.892;2024-03-06T00:35:41;7.60;99.90
20102;DHT22;10210;52.284;9.892;2024-03-06T00:38:08;7.60;99.90
20102;DHT22;10210;52.284;9.892;2024-03-06T00:40:33;7.60;99.90
20102;DHT22;10210;52.284;9.892;2024-03-06T00:42:59;7.60;99.90
20102;DHT22;10210;52.284;9.892;2024-03-06T00:45:24;7.50;99.90
20102;DHT22;10210;52.284;9.892;2024-03-06T00:47:50;7.60;99.90
20102;DHT22;10210;52.284;9.892;2024-03-06T00:50:16;7.50;99.90
20102;DHT22;10210;52.284;9.892;2024-03-06T00:52:45;7.50;99.90
20102;DHT22;10210;52.284;9.892;2024-03-06T00:55:12;7.60;99.90
20102;DHT22;10210;52.284;9.892;2024-03-06T00:57:38;7.60;99.90
20102;DHT22;10210;52.284;9.892;2024-03-06T01:00:04;7.50;99.90
20102;DHT22;10210;52.284;9.892;2024-03-06T01:02:39;7.60;99.90
20102;DHT22;10210;52.284;9.892;2024-03-06T01:05:06;7.60;99.90
20102;DHT22;10210;52.284;9.892;2024-03-06T01:07:35;7.60;99.90
20102;DHT22;10210;52.284;9.892;2024-03-06T01:10:04;7.60;99.90
20102;DHT22;10210;52.284;9.892;2024-03-06T01:12:33;7.60;99.90
20102;DHT22;10210;52.284;9.892;2024-03-06T01:14:58;7.60;99.90
20102;DHT22;10210;52.284;9.892;2024-03-06T01:17:24;7.60;99.90
20102;DHT22;10210;52.284;9.892;2024-03-06T01:19:50;7.60;99.90
20102;DHT22;10210;52.284;9.892;2024-03-06T01:22:16;7.60;99.90
20102;DHT22;10210;52.284;9.892;2024-03-06T01:24:43;7.60;99.90
20102;DHT22;10210;52.284;9.892;2024-03-06T01:27:09;7.60;99.90
20102;DHT22;10210;52.284;9.892;2024-03-06T01:29:35;7.60;99.90
20102;DHT22;10210;52.284;9.892;2024-03-06T01:32:02;7.60;99.90
20102;DHT22;10210;52.284;9.892;2024-03-06T01:34:28;7.60;99.90
20102;DHT22;10210;52.284;9.892;2024-03-06T01:36:55;7.60;99.90
20102;DHT22;10210;52.284;9.892;2024-03-06T01:39:21;7.60;99.90
20102;DHT22;10210;52.284;9.892;2024-03-06T01:41:48;7.60;99.90
20102;DHT22;10210;52.284;9.892;2024-03-06T01:44:15;7.60;99.90
20102;DHT22;10210;52.284;9.892;2024-03-06T01:46:43;7.60;99.90
20102;DHT22;10210;52.284;9.892;2024-03-06T01:49:12;7.60;99.90
20102;DHT22;10210;52.284;9.892;2024-03-06T01:51:40;7.60;99.90
20102;DHT22;10210;52.284;9.892;2024-03-06T01:54:06;7.60;99.90
20102;DHT22;10210;52.284;9.892;2024-03-06T01:56:37;7.60;99.90
20102;DHT22;10210;52.284;9.892;2024-03-06T01:59:07;7.60;99.90
20102;DHT22;10210;52.284;9.892;2024-03-06T02:01:33;7.60;99.90
20102;DHT22;10210;52.284;9.892;2024-03-06T02:03:59;7.60;99.90
20102;DHT22;10210;52.284;9.892;2024-03-06T02:06:25;7.60;99.90
20102;DHT22;10210;52.284;9.892;2024-03-06T02:08:51;7.60;99.90
20102;DHT22;10210;52.284;9.892;2024-03-06T02:11:17;7.60;99.90
20102;DHT22;10210;52.284;9.892;2024-03-06T02:13:43;7.60;99.90
20102;DHT22;10210;52.284;9.892;2024-03-06T02:16:10;7.60;99.90
20102;DHT22;10210;52.284;9.892;2024-03-06T02:18:36;7.60;99.90
20102;DHT22;10210;52.284;9.892;2024-03-06T02:21:03;7.60;99.90
20102;DHT22;10210;52.284;9.892;2024-03-06T02:23:30;7.60;99.90
20102;DHT22;10210;52.284;9.892;2024-03-06T02:25:56;7.60;99.90
20102;DHT22;10210;52.284;9.892;2024-03-06T02:28:22;7.60;99.90
20102;DHT22;10210;52.284;9.892;2024-03-06T02:30:51;7.60;99.90
20102;DHT22;10210;52.284;9.892;2024-03-06T02:33:16;7.70;99.90
20102;DHT22;10210;52.284;9.892;2024-03-06T02:35:43;7.70;99.90
20102;DHT22;10210;52.284;9.892;2024-03-06T02:38:11;7.70;99.90
20102;DHT22;10210;52.284;9.892;2024-03-06T02:40:36;7.80;99.90
20102;DHT22;10210;52.284;9.892;2024-03-06T02:43:02;7.80;99.90
20102;DHT22;10210;52.284;9.892;2024-03-06T02:45:30;7.80;99.90
20102;DHT22;10210;52.284;9.892;2024-03-06T02:47:55;7.80;99.90
20102;DHT22;10210;52.284;9.892;2024-03-06T02:50:21;7.90;99.90
20102;DHT22;10210;52.284;9.892;2024-03-06T02:52:48;7.90;99.90
20102;DHT22;10210;52.284;9.892;2024-03-06T02:55:15;7.90;99.90
20102;DHT22;10210;52.284;9.892;2024-03-06T02:57:41;7.90;99.90
20102;DHT22;10210;52.284;9.892;2024-03-06T03:00:07;7.90;99.90
20102;DHT22;10210;52.284;9.892;2024-03-06T03:02:39;7.90;99.90
20102;DHT22;10210;52.284;9.892;2024-03-06T03:05:05;7.90;99.90
20102;DHT22;10210;52.284;9.892;2024-03-06T03:07:31;7.90;99.90
20102;DHT22;10210;52.284;9.892;2024-03-06T03:09:57;8.00;99.90
20102;DHT22;10210;52.284;9.892;2024-03-06T03:12:22;7.90;99.90
20102;DHT22;10210;52.284;9.892;2024-03-06T03:14:48;8.00;99.90
20102;DHT22;10210;52.284;9.892;2024-03-06T03:17:14;8.00;99.90
20102;DHT22;10210;52.284;9.892;2024-03-06T03:19:40;8.00;99.90
20102;DHT22;10210;52.284;9.892;2024-03-06T03:22:07;8.00;99.90
20102;DHT22;10210;52.284;9.892;2024-03-06T03:24:34;8.00;99.90
20102;DHT22;10210;52.284;9.892;2024-03-06T03:27:00;8.00;99.90
20102;DHT22;10210;52.284;9.892;2024-03-06T03:29:26;8.00;99.90
20102;DHT22;10210;52.284;9.892;2024-03-06T03:31:52;8.00;99.90
20102;DHT22;10210;52.284;9.892;2024-03-06T03:34:18;8.00;99.90
20102;DHT22;10210;52.284;9.892;2024-03-06T03:36:44;8.00;99.90
20102;DHT22;10210;52.284;9.892;2024-03-06T03:39:12;8.00;99.90
20102;DHT22;10210;52.284;9.892;2024-03-06T03:41:47;8.00;99.90
20102;DHT22;10210;52.284;9.892;2024-03-06T03:44:16;8.00;99.90
20102;DHT22;10210;52.284;9.892;2024-03-06T03:46:44;8.00;99.90
20102;DHT22;10210;52.284;9.892;2024-03-06T03:49:10;8.00;99.90
20102;DHT22;10210;52.284;9.892;2024-03-06T03:51:38;8.00;99.90
20102;DHT22;10210;52.284;9.892;2024-03-06T03:54:04;7.90;99.90
20102;DHT22;10210;52.284;9.892;2024-03-06T03:56:31;7.90;99.90
20102;DHT22;10210;52.284;9.892;2024-03-06T03:58:57;7.90;99.90
20102;DHT22;10210;52.284;9.892;2024-03-06T04:01:24;7.90;99.90
20102;DHT22;10210;52.284;9.892;2024-03-06T04:03:52;7.90;99.90
20102;DHT22;10210;52.284;9.892;2024-03-06T04:06:18;7.90;99.90
20102;DHT22;10210;52.284;9.892;2024-03-06T04:08:44;7.90;99.90
20102;DHT22;10210;52.284;9.892;2024-03-06T04:11:11;7.90;99.90
20102;DHT22;10210;52.284;9.892;2024-03-06T04:13:38;7.90;99.90
20102;DHT22;10210;52.284;9.892;2024-03-06T04:16:04;7.90;99.90
20102;DHT22;10210;52.284;9.892;2024-03-06T04:18:31;7.90;99.90
20102;DHT22;10210;52.284;9.892;2024-03-06T04:21:02;7.90;99.90
20102;DHT22;10210;52.284;9.892;2024-03-06T04:23:29;7.90;99.90
20102;DHT22;10210;52.284;9.892;2024-03-06T04:25:55;7.80;99.90
20102;DHT22;10210;52.284;9.892;2024-03-06T04:28:21;7.80;99.90
20102;DHT22;10210;52.284;9.892;2024-03-06T04:30:46;7.80;99.90
20102;DHT22;10210;52.284;9.892;2024-03-06T04:33:12;7.80;99.90
20102;DHT22;10210;52.284;9.892;2024-03-06T04:35:40;7.80;99.90
20102;DHT22;10210;52.284;9.892;2024-03-06T04:38:06;7.80;99.90
20102;DHT22;10210;52.284;9.892;2024-03-06T04:40:33;7.80;99.90
20102;DHT22;10210;52.284;9.892;2024-03-06T04:43:03;7.80;99.90
20102;DHT22;10210;52.284;9.892;2024-03-06T04:45:29;7.80;99.90
20102;DHT22;10210;52.284;9.892;2024-03-06T04:47:55;7.80;99.90
20102;DHT22;10210;52.284;9.892;2024-03-06T04:50:21;7.70;99.90
20102;DHT22;10210;52.284;9.892;2024-03-06T04:52:46;7.70;99.90
20102;DHT22;10210;52.284;9.892;2024-03-06T04:55:12;7.70;99.90
20102;DHT22;10210;52.284;9.892;2024-03-06T04:57:43;7.70;99.90
20102;DHT22;10210;52.284;9.892;2024-03-06T05:00:10;7.70;99.90
20102;DHT22;10210;52.284;9.892;2024-03-06T05:02:37;7.70;99.90
20102;DHT22;10210;52.284;9.892;2024-03-06T05:05:03;7.70;99.90
20102;DHT22;10210;52.284;9.892;2024-03-06T05:07:30;7.70;99.90
20102;DHT22;10210;52.284;9.892;2024-03-06T05:09:57;7.70;99.90
20102;DHT22;10210;52.284;9.892;2024-03-06T05:12:24;7.70;99.90
20102;DHT22;10210;52.284;9.892;2024-03-06T05:14:51;7.70;99.90
20102;DHT22;10210;52.284;9.892;2024-03-06T05:17:18;7.70;99.90
20102;DHT22;10210;52.284;9.892;2024-03-06T05:19:47;7.70;99.90
20102;DHT22;10210;52.284;9.892;2024-03-06T05:22:16;7.70;99.90
20102;DHT22;10210;52.284;9.892;2024-03-06T05:24:42;7.60;99.90
20102;DHT22;10210;52.284;9.892;2024-03-06T05:27:10;7.60;99.90
20102;DHT22;10210;52.284;9.892;2024-03-06T05:29:39;7.60;99.90
20102;DHT22;10210;52.284;9.892;2024-03-06T05:32:05;7.60;99.90
20102;DHT22;10210;52.284;9.892;2024-03-06T05:34:32;7.60;99.90
20102;DHT22;10210;52.284;9.892;2024-03-06T05:36:59;7.60;99.90
20102;DHT22;10210;52.284;9.892;2024-03-06T05:39:27;7.60;99.90
20102;DHT22;10210;52.284;9.892;2024-03-06T05:41:59;7.60;99.90
20102;DHT22;10210;52.284;9.892;2024-03-06T05:44:28;7.60;99.90
20102;DHT22;10210;52.284;9.892;2024-03-06T05:46:54;7.60;99.90
20102;DHT22;10210;52.284;9.892;2024-03-06T05:49:20;7.60;99.90
20102;DHT22;10210;52.284;9.892;2024-03-06T05:51:45;7.60;99.90
20102;DHT22;10210;52.284;9.892;2024-03-06T05:54:12;7.60;99.90
20102;DHT22;10210;52.284;9.892;2024-03-06T05:56:38;7.70;99.90
20102;DHT22;10210;52.284;9.892;2024-03-06T05:59:04;7.70;99.90
20102;DHT22;10210;52.284;9.892;2024-03-06T06:01:36;7.70;99.90
20102;DHT22;10210;52.284;9.892;2024-03-06T06:04:02;7.70;99.90
20102;DHT22;10210;52.284;9.892;2024-03-06T06:06:27;7.70;99.90
20102;DHT22;10210;52.284;9.892;2024-03-06T06:08:53;7.70;99.90
20102;DHT22;10210;52.284;9.892;2024-03-06T06:11:19;7.70;99.90
20102;DHT22;10210;52.284;9.892;2024-03-06T06:13:45;7.70;99.90
20102;DHT22;10210;52.284;9.892;2024-03-06T06:16:10;7.70;99.90
20102;DHT22;10210;52.284;9.892;2024-03-06T06:18:37;7.70;99.90
20102;DHT22;10210;52.284;9.892;2024-03-06T06:21:03;7.70;99.90
20102;DHT22;10210;52.284;9.892;2024-03-06T06:23:32;7.70;99.90
20102;DHT22;10210;52.284;9.892;2024-03-06T06:25:58;7.70;99.90
20102;DHT22;10210;52.284;9.892;2024-03-06T06:28:24;7.70;99.90
20102;DHT22;10210;52.284;9.892;2024-03-06T06:30:50;7.70;99.90
20102;DHT22;10210;52.284;9.892;2024-03-06T06:33:20;7.70;99.90
20102;DHT22;10210;52.284;9.892;2024-03-06T06:35:46;7.70;99.90
20102;DHT22;10210;52.284;9.892;2024-03-06T06:38:12;7.70;99.90
20102;DHT22;10210;52.284;9.892;2024-03-06T06:40:39;7.70;99.90
20102;DHT22;10210;52.284;9.892;2024-03-06T06:43:06;7.70;99.90
20102;DHT22;10210;52.284;9.892;2024-03-06T06:45:33;7.70;99.90
20102;DHT22;10210;52.284;9.892;2024-03-06T06:47:58;7.80;99.90
20102;DHT22;10210;52.284;9.892;2024-03-06T06:50:24;7.80;99.90
20102;DHT22;10210;52.284;9.892;2024-03-06T06:52:52;7.80;99.90
20102;DHT22;10210;52.284;9.892;2024-03-06T06:55:18;7.80;99.90
20102;DHT22;10210;52.284;9.892;2024-03-06T06:57:45;7.80;99.90
20102;DHT22;10210;52.284;9.892;2024-03-06T07:00:11;7.80;99.90
20102;DHT22;10210;52.284;9.892;2024-03-06T07:02:38;7.80;99.90
20102;DHT22;10210;52.284;9.892;2024-03-06T07:05:05;7.80;99.90
20102;DHT22;10210;52.284;9.892;2024-03-06T07:07:31;7.80;99.90
20102;DHT22;10210;52.284;9.892;2024-03-06T07:09:57;7.80;99.90
20102;DHT22;10210;52.284;9.892;2024-03-06T07:12:23;7.80;99.90
20102;DHT22;10210;52.284;9.892;2024-03-06T07:14:49;7.80;99.90
20102;DHT22;10210;52.284;9.892;2024-03-06T07:17:16;7.80;99.90
20102;DHT22;10210;52.284;9.892;2024-03-06T07:19:41;7.80;99.90
20102;DHT22;10210;52.284;9.892;2024-03-06T07:22:07;7.80;99.90
20102;DHT22;10210;52.284;9.892;2024-03-06T07:24:33;7.80;99.90
20102;DHT22;10210;52.284;9.892;2024-03-06T07:26:59;7.80;99.90
20102;DHT22;10210;52.284;9.892;2024-03-06T07:29:27;7.70;99.90
20102;DHT22;10210;52.284;9.892;2024-03-06T07:31:52;7.80;99.90
20102;DHT22;10210;52.284;9.892;2024-03-06T07:34:19;7.80;99.90
20102;DHT22;10210;52.284;9.892;2024-03-06T07:36:48;7.80;99.90
20102;DHT22;10210;52.284;9.892;2024-03-06T07:39:21;7.80;99.90
20102;DHT22;10210;52.284;9.892;2024-03-06T07:41:47;7.80;99.90
20102;DHT22;10210;52.284;9.892;2024-03-06T07:44:14;7.90;99.90
20102;DHT22;10210;52.284;9.892;2024-03-06T07:46:40;7.90;99.90
20102;DHT22;10210;52.284;9.892;2024-03-06T07:49:05;7.90;99.90
20102;DHT22;10210;52.284;9.892;2024-03-06T07:51:32;7.90;99.90
20102;DHT22;10210;52.284;9.892;2024-03-06T07:53:58;7.90;99.90
20102;DHT22;10210;52.284;9.892;2024-03-06T07:56:26;7.90;99.90
20102;DHT22;10210;52.284;9.892;2024-03-06T07:58:52;8.00;99.90
20102;DHT22;10210;52.284;9.892;2024-03-06T08:01:19;7.90;99.90
20102;DHT22;10210;52.284;9.892;2024-03-06T08:03:46;8.00;99.90
20102;DHT22;10210;52.284;9.892;2024-03-06T08:06:12;8.00;99.90
20102;DHT22;10210;52.284;9.892;2024-03-06T08:08:44;8.00;99.90
20102;DHT22;10210;52.284;9.892;2024-03-06T08:11:11;8.00;99.90
20102;DHT22;10210;52.284;9.892;2024-03-06T08:13:37;8.00;99.90
20102;DHT22;10210;52.284;9.892;2024-03-06T08:16:04;8.00;99.90
20102;DHT22;10210;52.284;9.892;2024-03-06T08:18:32;8.00;99.90
20102;DHT22;10210;52.284;9.892;2024-03-06T08:20:59;8.00;99.90
20102;DHT22;10210;52.284;9.892;2024-03-06T08:23:24;7.90;99.90
20102;DHT22;10210;52.284;9.892;2024-03-06T08:25:50;8.00;99.90
20102;DHT22;10210;52.284;9.892;2024-03-06T08:28:17;8.00;99.90
20102;DHT22;10210;52.284;9.892;2024-03-06T08:30:43;8.00;99.90
20102;DHT22;10210;52.284;9.892;2024-03-06T08:33:10;8.00;99.90
20102;DHT22;10210;52.284;9.892;2024-03-06T08:35:35;8.00;99.90
20102;DHT22;10210;52.284;9.892;2024-03-06T08:38:01;8.00;99.90
20102;DHT22;10210;52.284;9.892;2024-03-06T08:40:27;8.00;99.90
20102;DHT22;10210;52.284;9.892;2024-03-06T08:42:53;8.10;99.90
20102;DHT22;10210;52.284;9.892;2024-03-06T08:45:19;8.10;99.90
20102;DHT22;10210;52.284;9.892;2024-03-06T08:47:46;8.10;99.90
20102;DHT22;10210;52.284;9.892;2024-03-06T08:50:16;8.20;99.90
20102;DHT22;10210;52.284;9.892;2024-03-06T08:52:42;8.20;99.90
20102;DHT22;10210;52.284;9.892;2024-03-06T08:55:08;8.20;99.90
20102;DHT22;10210;52.284;9.892;2024-03-06T08:57:38;8.20;99.90
20102;DHT22;10210;52.284;9.892;2024-03-06T09:00:05;8.20;99.90
20102;DHT22;10210;52.284;9.892;2024-03-06T09:02:36;8.20;99.90
20102;DHT22;10210;52.284;9.892;2024-03-06T09:05:09;8.30;99.90
20102;DHT22;10210;52.284;9.892;2024-03-06T09:07:36;8.30;99.90
20102;DHT22;10210;52.284;9.892;2024-03-06T09:10:10;8.30;99.90
20102;DHT22;10210;52.284;9.892;2024-03-06T09:12:36;8.30;99.90
20102;DHT22;10210;52.284;9.892;2024-03-06T09:15:03;8.30;99.90
20102;DHT22;10210;52.284;9.892;2024-03-06T09:17:31;8.40;99.90
20102;DHT22;10210;52.284;9.892;2024-03-06T09:19:56;8.40;99.90
20102;DHT22;10210;52.284;9.892;2024-03-06T09:22:22;8.40;99.90
20102;DHT22;10210;52.284;9.892;2024-03-06T09:24:48;8.40;99.90
20102;DHT22;10210;52.284;9.892;2024-03-06T09:27:17;8.40;99.90
20102;DHT22;10210;52.284;9.892;2024-03-06T09:29:43;8.40;99.90
20102;DHT22;10210;52.284;9.892;2024-03-06T09:32:09;8.40;99.90
20102;DHT22;10210;52.284;9.892;2024-03-06T09:34:35;8.40;99.90
20102;DHT22;10210;52.284;9.892;2024-03-06T09:37:01;8.40;99.90
20102;DHT22;10210;52.284;9.892;2024-03-06T09:39:29;8.40;99.90
20102;DHT22;10210;52.284;9.892;2024-03-06T09:41:55;8.50;99.90
20102;DHT22;10210;52.284;9.892;2024-03-06T09:44:22;8.50;99.90
20102;DHT22;10210;52.284;9.892;2024-03-06T09:46:48;8.50;99.90
20102;DHT22;10210;52.284;9.892;2024-03-06T09:49:16;8.50;99.90
20102;DHT22;10210;52.284;9.892;2024-03-06T09:51:46;8.60;99.90
20102;DHT22;10210;52.284;9.892;2024-03-06T09:54:16;8.60;99.90
20102;DHT22;10210;52.284;9.892;2024-03-06T09:56:46;8.60;99.90
20102;DHT22;10210;52.284;9.892;2024-03-06T09:59:13;8.60;99.90
20102;DHT22;10210;52.284;9.892;2024-03-06T10:01:48;8.60;99.90
20102;DHT22;10210;52.284;9.892;2024-03-06T10:04:26;8.70;99.90
20102;DHT22;10210;52.284;9.892;2024-03-06T10:06:56;8.70;99.90
20102;DHT22;10210;52.284;9.892;2024-03-06T10:09:24;8.80;99.90
20102;DHT22;10210;52.284;9.892;2024-03-06T10:11:51;8.80;99.90
20102;DHT22;10210;52.284;9.892;2024-03-06T10:14:21;8.90;99.90
20102;DHT22;10210;52.284;9.892;2024-03-06T10:16:53;8.90;99.90
20102;DHT22;10210;52.284;9.892;2024-03-06T10:19:24;8.90;99.90
20102;DHT22;10210;52.284;9.892;2024-03-06T10:21:53;9.00;99.90
20102;DHT22;10210;52.284;9.892;2024-03-06T10:24:23;9.00;99.90
20102;DHT22;10210;52.284;9.892;2024-03-06T10:26:51;9.10;99.90
20102;DHT22;10210;52.284;9.892;2024-03-06T10:29:20;9.20;99.90
20102;DHT22;10210;52.284;9.892;2024-03-06T10:31:55;9.20;99.90
20102;DHT22;10210;52.284;9.892;2024-03-06T10:34:26;9.30;99.90
20102;DHT22;10210;52.284;9.892;2024-03-06T10:36:57;9.40;99.90
20102;DHT22;10210;52.284;9.892;2024-03-06T10:39:25;9.40;99.90
20102;DHT22;10210;52.284;9.892;2024-03-06T10:41:55;9.50;99.90
20102;DHT22;10210;52.284;9.892;2024-03-06T10:44:26;9.50;99.90
20102;DHT22;10210;52.284;9.892;2024-03-06T10:47:02;9.50;99.90
20102;DHT22;10210;52.284;9.892;2024-03-06T10:49:31;9.60;99.90
20102;DHT22;10210;52.284;9.892;2024-03-06T10:52:05;9.60;99.90
20102;DHT22;10210;52.284;9.892;2024-03-06T10:54:32;9.70;99.90
20102;DHT22;10210;52.284;9.892;2024-03-06T10:57:01;9.70;99.90
20102;DHT22;10210;52.284;9.892;2024-03-06T10:59:28;9.80;99.90
20102;DHT22;10210;52.284;9.892;2024-03-06T11:01:56;9.80;99.90
20102;DHT22;10210;52.284;9.892;2024-03-06T11:04:30;9.80;99.90
20102;DHT22;10210;52.284;9.892;2024-03-06T11:07:03;9.90;99.90
20102;DHT22;10210;52.284;9.892;2024-03-06T11:09:37;10.00;99.90
20102;DHT22;10210;52.284;9.892;2024-03-06T11:12:04;10.00;99.90
20102;DHT22;10210;52.284;9.892;2024-03-06T11:14:38;10.00;99.90
20102;DHT22;10210;52.284;9.892;2024-03-06T11:17:06;10.10;99.90
20102;DHT22;10210;52.284;9.892;2024-03-06T11:28:32;10.30;99.90
20102;DHT22;10210;52.284;9.892;2024-03-06T11:31:04;10.40;99.90
20102;DHT22;10210;52.284;9.892;2024-03-06T11:33:35;10.40;99.90
20102;DHT22;10210;52.284;9.892;2024-03-06T11:36:14;10.40;99.90
20102;DHT22;10210;52.284;9.892;2024-03-06T11:38:59;10.50;99.90
20102;DHT22;10210;52.284;9.892;2024-03-06T11:41:30;10.50;99.90
20102;DHT22;10210;52.284;9.892;2024-03-06T11:44:02;10.50;99.90
20102;DHT22;10210;52.284;9.892;2024-03-06T11:49:24;10.60;99.90
20102;DHT22;10210;52.284;9.892;2024-03-06T11:51:52;10.50;99.90
20102;DHT22;10210;52.284;9.892;2024-03-06T11:54:19;10.60;99.90
20102;DHT22;10210;52.284;9.892;2024-03-06T11:56:49;10.60;99.90
20102;DHT22;10210;52.284;9.892;2024-03-06T11:59:23;10.60;99.90
20102;DHT22;10210;52.284;9.892;2024-03-06T12:01:50;10.60;99.90
20102;DHT22;10210;52.284;9.892;2024-03-06T12:04:19;10.60;99.90
20102;DHT22;10210;52.284;9.892;2024-03-06T12:06:46;10.60;99.90
20102;DHT22;10210;52.284;9.892;2024-03-06T12:09:11;10.70;99.90
20102;DHT22;10210;52.284;9.892;2024-03-06T12:11:38;10.70;99.90
20102;DHT22;10210;52.284;9.892;2024-03-06T12:14:04;10.70;99.90
20102;DHT22;10210;52.284;9.892;2024-03-06T12:16:30;10.70;99.90
20102;DHT22;10210;52.284;9.892;2024-03-06T12:18:57;10.70;99.90
20102;DHT22;10210;52.284;9.892;2024-03-06T12:21:28;10.70;99.90
20102;DHT22;10210;52.284;9.892;2024-03-06T12:24:06;10.70;99.90
20102;DHT22;10210;52.284;9.892;2024-03-06T12:26:33;10.70;99.90
20102;DHT22;10210;52.284;9.892;2024-03-06T12:29:06;10.80;99.90
20102;DHT22;10210;52.284;9.892;2024-03-06T12:31:34;10.70;99.90
20102;DHT22;10210;52.284;9.892;2024-03-06T12:34:01;10.70;99.90
20102;DHT22;10210;52.284;9.892;2024-03-06T12:36:28;10.70;99.90
20102;DHT22;10210;52.284;9.892;2024-03-06T12:39:04;10.70;99.90
20102;DHT22;10210;52.284;9.892;2024-03-06T12:41:38;10.70;99.90
20102;DHT22;10210;52.284;9.892;2024-03-06T12:44:05;10.80;99.90
20102;DHT22;10210;52.284;9.892;2024-03-06T12:46:32;10.80;99.90
20102;DHT22;10210;52.284;9.892;2024-03-06T12:48:58;10.80;99.90
20102;DHT22;10210;52.284;9.892;2024-03-06T12:51:23;10.80;99.90
20102;DHT22;10210;52.284;9.892;2024-03-06T12:53:49;10.90;99.90
20102;DHT22;10210;52.284;9.892;2024-03-06T12:56:17;10.90;99.90
20102;DHT22;10210;52.284;9.892;2024-03-06T12:58:42;11.00;99.90
20102;DHT22;10210;52.284;9.892;2024-03-06T13:01:08;11.00;99.90
20102;DHT22;10210;52.284;9.892;2024-03-06T13:03:35;11.00;99.90
20102;DHT22;10210;52.284;9.892;2024-03-06T13:06:02;11.10;99.90
20102;DHT22;10210;52.284;9.892;2024-03-06T13:08:30;11.10;99.90
20102;DHT22;10210;52.284;9.892;2024-03-06T13:10:55;11.20;99.90
20102;DHT22;10210;52.284;9.892;2024-03-06T13:13:22;11.30;99.90
20102;DHT22;10210;52.284;9.892;2024-03-06T13:15:50;11.30;99.90
20102;DHT22;10210;52.284;9.892;2024-03-06T13:18:18;11.30;99.90
20102;DHT22;10210;52.284;9.892;2024-03-06T13:20:44;11.40;99.90
20102;DHT22;10210;52.284;9.892;2024-03-06T13:23:11;11.40;99.90
20102;DHT22;10210;52.284;9.892;2024-03-06T13:25:37;11.40;99.90
20102;DHT22;10210;52.284;9.892;2024-03-06T13:28:03;11.40;99.90
20102;DHT22;10210;52.284;9.892;2024-03-06T13:30:30;11.40;99.90
20102;DHT22;10210;52.284;9.892;2024-03-06T13:32:56;11.40;99.90
20102;DHT22;10210;52.284;9.892;2024-03-06T13:35:23;11.40;99.90
20102;DHT22;10210;52.284;9.892;2024-03-06T13:37:48;11.50;99.90
20102;DHT22;10210;52.284;9.892;2024-03-06T13:40:17;11.50;99.90
20102;DHT22;10210;52.284;9.892;2024-03-06T13:42:43;11.60;99.90
20102;DHT22;10210;52.284;9.892;2024-03-06T13:45:09;11.60;99.90
20102;DHT22;10210;52.284;9.892;2024-03-06T13:47:40;11.60;99.90
20102;DHT22;10210;52.284;9.892;2024-03-06T13:50:09;11.70;99.90
20102;DHT22;10210;52.284;9.892;2024-03-06T13:52:35;11.80;99.90
20102;DHT22;10210;52.284;9.892;2024-03-06T13:55:01;11.90;99.90
20102;DHT22;10210;52.284;9.892;2024-03-06T13:57:31;12.00;99.90
20102;DHT22;10210;52.284;9.892;2024-03-06T14:00:00;12.00;99.90
20102;DHT22;10210;52.284;9.892;2024-03-06T14:02:43;12.10;99.90
20102;DHT22;10210;52.284;9.892;2024-03-06T14:05:11;12.20;99.90
20102;DHT22;10210;52.284;9.892;2024-03-06T14:07:38;12.30;99.90
20102;DHT22;10210;52.284;9.892;2024-03-06T14:10:05;12.40;99.90
20102;DHT22;10210;52.284;9.892;2024-03-06T14:12:33;12.40;99.90
20102;DHT22;10210;52.284;9.892;2024-03-06T14:14:58;12.50;99.90
20102;DHT22;10210;52.284;9.892;2024-03-06T14:17:25;12.60;99.90
20102;DHT22;10210;52.284;9.892;2024-03-06T14:19:51;12.60;99.90
20102;DHT22;10210;52.284;9.892;2024-03-06T14:22:16;12.60;99.90
20102;DHT22;10210;52.284;9.892;2024-03-06T14:24:42;12.70;99.90
20102;DHT22;10210;52.284;9.892;2024-03-06T14:27:08;12.70;99.90
20102;DHT22;10210;52.284;9.892;2024-03-06T14:29:34;12.80;99.90
20102;DHT22;10210;52.284;9.892;2024-03-06T14:31:59;12.80;99.90
20102;DHT22;10210;52.284;9.892;2024-03-06T14:34:25;12.90;99.90
20102;DHT22;10210;52.284;9.892;2024-03-06T14:36:51;13.00;99.90
20102;DHT22;10210;52.284;9.892;2024-03-06T14:39:18;13.00;99.90
20102;DHT22;10210;52.284;9.892;2024-03-06T14:41:47;13.00;99.90
20102;DHT22;10210;52.284;9.892;2024-03-06T14:44:13;13.10;99.90
20102;DHT22;10210;52.284;9.892;2024-03-06T14:46:42;13.10;99.90
20102;DHT22;10210;52.284;9.892;2024-03-06T14:49:08;13.20;99.90
20102;DHT22;10210;52.284;9.892;2024-03-06T14:51:34;13.20;99.90
20102;DHT22;10210;52.284;9.892;2024-03-06T14:54:01;13.20;99.90
20102;DHT22;10210;52.284;9.892;2024-03-06T14:56:26;13.20;99.90
20102;DHT22;10210;52.284;9.892;2024-03-06T14:58:52;13.20;99.90
20102;DHT22;10210;52.284;9.892;2024-03-06T15:01:18;13.30;99.90
20102;DHT22;10210;52.284;9.892;2024-03-06T15:03:44;13.30;99.90
20102;DHT22;10210;52.284;9.892;2024-03-06T15:06:13;13.30;99.90
20102;DHT22;10210;52.284;9.892;2024-03-06T15:08:40;13.40;99.90
20102;DHT22;10210;52.284;9.892;2024-03-06T15:11:06;13.40;99.90
20102;DHT22;10210;52.284;9.892;2024-03-06T15:13:32;13.40;99.90
20102;DHT22;10210;52.284;9.892;2024-03-06T15:15:58;13.40;99.90
20102;DHT22;10210;52.284;9.892;2024-03-06T15:18:24;13.40;99.90
20102;DHT22;10210;52.284;9.892;2024-03-06T15:20:50;13.40;99.90
20102;DHT22;10210;52.284;9.892;2024-03-06T15:23:17;13.50;99.90
20102;DHT22;10210;52.284;9.892;2024-03-06T15:25:43;13.50;99.90
20102;DHT22;10210;52.284;9.892;2024-03-06T15:28:10;13.40;99.90
20102;DHT22;10210;52.284;9.892;2024-03-06T15:30:36;13.40;99.90
20102;DHT22;10210;52.284;9.892;2024-03-06T15:33:03;13.40;99.90
20102;DHT22;10210;52.284;9.892;2024-03-06T15:35:30;13.40;99.90
20102;DHT22;10210;52.284;9.892;2024-03-06T15:37:56;13.30;99.90
20102;DHT22;10210;52.284;9.892;2024-03-06T15:40:22;13.30;99.90
20102;DHT22;10210;52.284;9.892;2024-03-06T15:42:48;13.30;99.90
20102;DHT22;10210;52.284;9.892;2024-03-06T15:45:13;13.20;99.90
20102;DHT22;10210;52.284;9.892;2024-03-06T15:47:40;13.20;99.90
20102;DHT22;10210;52.284;9.892;2024-03-06T15:50:09;13.20;99.90
20102;DHT22;10210;52.284;9.892;2024-03-06T15:52:36;13.10;99.90
20102;DHT22;10210;52.284;9.892;2024-03-06T15:55:06;13.00;99.90